createdAt,value
2018-11-01T00:01:47.024Z,58.56
2018-11-01T00:04:15.365Z,58.66
2018-11-01T00:06:43.717Z,58.90
2018-11-01T00:09:12.076Z,58.68
2018-11-01T00:11:40.424Z,59.75
2018-11-01T00:14:09.065Z,59.72
2018-11-01T00:16:37.464Z,59.31
2018-11-01T00:19:06.149Z,59.01
2018-11-01T00:21:34.580Z,59.46
2018-11-01T00:24:02.907Z,59.39
2018-11-01T00:26:31.243Z,59.34
2018-11-01T00:28:59.599Z,59.09
2018-11-01T00:31:27.960Z,58.90
2018-11-01T00:33:56.284Z,59.14
2018-11-01T00:36:24.683Z,59.46
2018-11-01T00:38:53.153Z,59.21
2018-11-01T00:41:21.513Z,59.24
2018-11-01T00:43:49.876Z,59.10
2018-11-01T00:46:18.226Z,59.28
2018-11-01T00:48:46.593Z,59.74
2018-11-01T00:51:14.952Z,60.08
2018-11-01T00:53:43.281Z,60.66
2018-11-01T00:56:11.869Z,60.87
2018-11-01T00:58:40.244Z,60.52
2018-11-01T01:01:09.268Z,60.48
2018-11-01T01:03:38.734Z,60.60
2018-11-01T01:06:07.119Z,60.86
2018-11-01T01:08:36.460Z,60.89
2018-11-01T01:11:05.005Z,60.68
2018-11-01T01:13:33.353Z,60.77
2018-11-01T01:16:01.688Z,60.99
2018-11-01T01:18:30.068Z,61.73
2018-11-01T01:20:58.415Z,60.79
2018-11-01T01:23:26.723Z,60.82
2018-11-01T01:25:55.081Z,60.42
2018-11-01T01:28:23.491Z,60.30
2018-11-01T01:30:51.820Z,60.14
2018-11-01T01:33:20.247Z,59.53
2018-11-01T01:35:48.564Z,59.86
2018-11-01T01:38:16.883Z,60.39
2018-11-01T01:40:45.264Z,59.18
2018-11-01T01:43:13.584Z,59.47
2018-11-01T01:45:41.984Z,59.12
2018-11-01T01:48:10.407Z,60.10
2018-11-01T01:50:38.795Z,59.18
2018-11-01T01:53:07.050Z,59.58
2018-11-01T01:55:35.379Z,60.43
2018-11-01T01:58:03.704Z,60.05
2018-11-01T02:00:32.036Z,59.68
2018-11-01T02:03:00.360Z,59.30
2018-11-01T02:05:28.676Z,59.82
2018-11-01T02:07:57.100Z,59.67
2018-11-01T02:10:25.415Z,59.98
2018-11-01T02:12:53.752Z,60.04
2018-11-01T02:15:22.357Z,59.40
2018-11-01T02:17:50.683Z,60.13
2018-11-01T02:20:20.187Z,60.39
2018-11-01T02:22:48.526Z,60.13
2018-11-01T02:25:16.964Z,60.26
2018-11-01T02:27:50.558Z,60.04
2018-11-01T02:30:19.423Z,59.97
2018-11-01T02:32:47.789Z,60.40
2018-11-01T02:35:17.267Z,60.80
2018-11-01T02:37:45.939Z,61.04
2018-11-01T02:40:14.636Z,60.12
2018-11-01T02:42:43.444Z,60.02
2018-11-01T02:45:12.743Z,59.81
2018-11-01T02:47:41.221Z,59.99
2018-11-01T02:50:11.197Z,59.82
2018-11-01T02:52:39.717Z,59.81
2018-11-01T02:55:08.496Z,60.66
2018-11-01T02:57:36.840Z,60.73
2018-11-01T03:00:06.981Z,60.47
2018-11-01T03:02:35.392Z,60.03
2018-11-01T03:05:03.782Z,59.43
2018-11-01T03:07:32.132Z,59.82
2018-11-01T03:10:00.481Z,60.44
2018-11-01T03:12:28.948Z,59.76
2018-11-01T03:14:57.426Z,59.79
2018-11-01T03:17:25.732Z,59.21
2018-11-01T03:19:54.082Z,59.90
2018-11-01T03:22:22.461Z,59.64
2018-11-01T03:24:50.731Z,59.70
2018-11-01T03:27:19.069Z,60.04
2018-11-01T03:29:47.699Z,59.11
2018-11-01T03:32:16.024Z,59.26
2018-11-01T03:34:44.345Z,59.82
2018-11-01T03:37:12.667Z,59.71
2018-11-01T03:39:41.081Z,59.85
2018-11-01T03:42:09.512Z,59.75
2018-11-01T03:44:37.848Z,59.72
2018-11-01T03:47:07.089Z,60.22
2018-11-01T03:49:35.425Z,60.23
2018-11-01T03:52:03.874Z,59.86
2018-11-01T03:54:32.134Z,59.65
2018-11-01T03:57:00.500Z,59.11
2018-11-01T03:59:28.839Z,59.81
2018-11-01T04:01:57.187Z,59.72
2018-11-01T04:04:25.529Z,60.16
2018-11-01T04:06:53.889Z,60.25
2018-11-01T04:09:22.913Z,60.07
2018-11-01T04:11:51.257Z,60.23
2018-11-01T04:14:19.593Z,60.47
2018-11-01T04:16:47.987Z,60.79
2018-11-01T04:19:16.281Z,60.91
2018-11-01T04:21:44.624Z,60.51
2018-11-01T04:24:12.988Z,60.19
2018-11-01T04:26:41.344Z,60.35
2018-11-01T04:29:09.672Z,61.01
2018-11-01T04:31:38.027Z,61.53
2018-11-01T04:34:06.392Z,61.33
2018-11-01T04:36:34.740Z,60.64
2018-11-01T04:39:03.113Z,60.00
2018-11-01T04:41:31.508Z,60.07
2018-11-01T04:43:59.849Z,59.74
2018-11-01T04:46:28.207Z,59.89
2018-11-01T04:48:56.521Z,60.45
2018-11-01T04:51:24.854Z,59.97
2018-11-01T04:53:53.177Z,59.76
2018-11-01T04:56:21.512Z,59.86
2018-11-01T04:58:49.839Z,60.30
2018-11-01T05:01:21.237Z,60.49
2018-11-01T05:03:51.028Z,59.84
2018-11-01T05:06:19.623Z,60.18
2018-11-01T05:08:47.943Z,60.25
2018-11-01T05:11:16.588Z,59.86
2018-11-01T05:13:45.064Z,60.15
2018-11-01T05:16:13.383Z,60.15
2018-11-01T05:18:41.932Z,59.73
2018-11-01T05:21:10.396Z,60.21
2018-11-01T05:23:39.101Z,60.41
2018-11-01T05:26:07.774Z,60.02
2018-11-01T05:28:36.472Z,60.57
2018-11-01T05:31:05.020Z,60.11
2018-11-01T05:33:33.381Z,60.33
2018-11-01T05:36:01.720Z,61.20
2018-11-01T05:38:30.192Z,61.56
2018-11-01T05:40:58.560Z,61.41
2018-11-01T05:43:28.068Z,61.86
2018-11-01T05:45:57.251Z,61.53
2018-11-01T05:48:25.584Z,62.56
2018-11-01T05:50:53.904Z,61.98
2018-11-01T05:53:22.719Z,62.09
2018-11-01T05:55:51.061Z,61.73
2018-11-01T05:58:19.408Z,61.71
2018-11-01T06:00:47.860Z,61.06
2018-11-01T06:03:16.197Z,61.20
2018-11-01T06:05:44.624Z,61.08
2018-11-01T06:08:16.544Z,60.56
2018-11-01T06:10:45.024Z,60.65
2018-11-01T06:13:13.368Z,60.58
2018-11-01T06:15:41.692Z,60.15
2018-11-01T06:18:10.041Z,59.38
2018-11-01T06:20:38.429Z,59.67
2018-11-01T06:23:07.240Z,59.52
2018-11-01T06:25:35.572Z,59.69
2018-11-01T06:28:03.956Z,60.03
2018-11-01T06:30:32.333Z,59.52
2018-11-01T06:33:00.716Z,59.69
2018-11-01T06:35:33.460Z,59.59
2018-11-01T06:38:01.912Z,59.15
2018-11-01T06:40:30.285Z,58.61
2018-11-01T06:42:58.636Z,58.69
2018-11-01T06:45:26.953Z,58.05
2018-11-01T06:47:55.401Z,58.92
2018-11-01T06:50:23.723Z,58.77
2018-11-01T06:52:52.051Z,57.86
2018-11-01T06:55:20.428Z,57.50
2018-11-01T06:57:48.748Z,57.26
2018-11-01T07:00:17.200Z,57.51
2018-11-01T07:02:45.858Z,57.36
2018-11-01T07:05:14.204Z,56.86
2018-11-01T07:07:42.533Z,56.97
2018-11-01T07:10:13.108Z,56.56
2018-11-01T07:12:41.452Z,56.42
2018-11-01T07:15:11.465Z,56.23
2018-11-01T07:17:40.366Z,54.93
2018-11-01T07:20:09.963Z,54.94
2018-11-01T07:22:39.784Z,54.61
2018-11-01T07:25:09.941Z,53.97
2018-11-01T07:27:38.280Z,53.57
2018-11-01T07:30:09.842Z,53.47
2018-11-01T07:32:38.346Z,53.76
2018-11-01T07:35:07.301Z,53.15
2018-11-01T07:37:36.292Z,52.69
2018-11-01T07:40:05.436Z,52.13
2018-11-01T07:42:33.686Z,51.95
2018-11-01T07:45:02.426Z,52.54
2018-11-01T07:47:30.823Z,52.59
2018-11-01T07:49:59.160Z,51.80
2018-11-01T07:52:27.651Z,52.12
2018-11-01T07:54:55.955Z,52.15
2018-11-01T07:57:24.566Z,52.53
2018-11-01T07:59:52.883Z,52.68
2018-11-01T08:02:21.216Z,53.50
2018-11-01T08:04:49.540Z,53.57
2018-11-01T08:07:17.867Z,53.24
2018-11-01T08:09:46.187Z,52.87
2018-11-01T08:12:14.548Z,52.70
2018-11-01T08:14:42.884Z,52.42
2018-11-01T08:17:11.241Z,54.45
2018-11-01T08:19:39.612Z,53.92
2018-11-01T08:22:08.457Z,54.21
2018-11-01T08:24:36.796Z,54.14
2018-11-01T08:27:05.592Z,54.40
2018-11-01T08:29:34.004Z,54.53
2018-11-01T08:32:02.381Z,54.97
2018-11-01T08:34:30.721Z,54.30
2018-11-01T08:36:59.072Z,53.43
2018-11-01T08:39:27.527Z,52.46
2018-11-01T08:41:55.817Z,53.59
2018-11-01T08:44:24.144Z,53.06
2018-11-01T08:46:52.496Z,53.48
2018-11-01T08:49:20.867Z,53.65
2018-11-01T08:51:49.212Z,54.79
2018-11-01T08:54:17.549Z,54.25
2018-11-01T08:56:45.905Z,53.48
2018-11-01T08:59:14.242Z,53.04
2018-11-01T09:01:42.580Z,52.92
2018-11-01T09:04:11.004Z,52.38
2018-11-01T09:06:39.260Z,52.37
2018-11-01T09:09:08.332Z,53.22
2018-11-01T09:11:37.040Z,52.81
2018-11-01T09:14:05.797Z,52.60
2018-11-01T09:16:34.134Z,51.74
2018-11-01T09:19:02.496Z,53.02
2018-11-01T09:21:30.880Z,53.20
2018-11-01T09:23:59.212Z,52.71
2018-11-01T09:26:27.572Z,53.11
2018-11-01T09:28:55.897Z,53.40
2018-11-01T09:31:24.236Z,52.94
2018-11-01T09:33:52.577Z,52.20
2018-11-01T09:36:20.937Z,51.62
2018-11-01T09:38:49.281Z,51.49
2018-11-01T09:41:17.648Z,51.19
2018-11-01T09:43:45.988Z,52.46
2018-11-01T09:46:14.609Z,52.44
2018-11-01T09:48:43.025Z,51.92
2018-11-01T09:51:11.360Z,51.47
2018-11-01T09:53:39.701Z,51.46
2018-11-01T09:56:08.158Z,51.61
2018-11-01T09:58:36.462Z,51.64
2018-11-01T10:01:04.915Z,52.68
2018-11-01T10:03:33.203Z,53.80
2018-11-01T10:06:01.660Z,53.63
2018-11-01T10:08:29.940Z,53.64
2018-11-01T10:10:58.288Z,53.54
2018-11-01T10:13:26.618Z,54.10
2018-11-01T10:15:55.204Z,54.30
2018-11-01T10:18:23.751Z,54.31
2018-11-01T10:20:51.852Z,54.50
2018-11-01T10:23:20.181Z,54.60
2018-11-01T10:25:48.525Z,54.80
2018-11-01T10:28:16.851Z,55.08
2018-11-01T10:30:45.204Z,55.98
2018-11-01T10:33:13.624Z,56.21
2018-11-01T10:35:41.972Z,56.29
2018-11-01T10:38:10.308Z,55.63
2018-11-01T10:40:38.702Z,55.78
2018-11-01T10:43:07.045Z,56.29
2018-11-01T10:45:35.367Z,57.00
2018-11-01T10:48:03.713Z,56.32
2018-11-01T10:50:32.033Z,55.65
2018-11-01T10:53:00.351Z,55.81
2018-11-01T10:55:28.690Z,56.37
2018-11-01T10:57:56.996Z,55.00
2018-11-01T11:00:30.877Z,54.43
2018-11-01T11:02:58.940Z,54.57
2018-11-01T11:05:27.296Z,54.61
2018-11-01T11:07:55.669Z,54.89
2018-11-01T11:10:24.016Z,55.59
2018-11-01T11:12:52.348Z,55.96
2018-11-01T11:15:20.696Z,56.14
2018-11-01T11:17:49.110Z,56.19
2018-11-01T11:20:17.745Z,55.23
2018-11-01T11:22:45.963Z,54.60
2018-11-01T11:25:14.324Z,54.04
2018-11-01T11:27:42.661Z,53.44
2018-11-01T11:30:12.085Z,53.35
2018-11-01T11:32:40.312Z,54.27
2018-11-01T11:35:09.436Z,54.65
2018-11-01T11:37:37.773Z,55.68
2018-11-01T11:40:07.633Z,56.39
2018-11-01T11:42:36.096Z,55.56
2018-11-01T11:45:04.977Z,56.39
2018-11-01T11:47:33.333Z,56.00
2018-11-01T11:50:01.673Z,55.58
2018-11-01T11:52:30.016Z,55.31
2018-11-01T11:54:58.353Z,55.21
2018-11-01T11:57:26.655Z,54.92
2018-11-01T11:59:55.219Z,55.80
2018-11-01T12:02:23.603Z,55.60
2018-11-01T12:04:51.823Z,56.41
2018-11-01T12:07:20.130Z,57.03
2018-11-01T12:09:48.431Z,57.10
2018-11-01T12:12:16.751Z,57.59
2018-11-01T12:14:45.082Z,56.73
2018-11-01T12:17:13.391Z,57.29
2018-11-01T12:19:41.712Z,56.82
2018-11-01T12:22:10.040Z,57.34
2018-11-01T12:24:38.361Z,57.23
2018-11-01T12:27:06.691Z,58.01
2018-11-01T12:29:35.049Z,56.05
2018-11-01T12:32:03.377Z,55.81
2018-11-01T12:34:31.708Z,55.91
2018-11-01T12:37:00.040Z,56.62
2018-11-01T12:39:28.353Z,56.12
2018-11-01T12:41:56.679Z,56.17
2018-11-01T12:44:25.008Z,57.14
2018-11-01T12:46:53.353Z,56.39
2018-11-01T12:49:21.688Z,55.86
2018-11-01T12:51:50.053Z,56.66
2018-11-01T12:54:18.428Z,57.69
2018-11-01T12:56:46.766Z,57.98
2018-11-01T12:59:15.201Z,58.62
2018-11-01T13:01:43.544Z,58.23
2018-11-01T13:04:11.888Z,58.19
2018-11-01T13:06:40.244Z,58.84
2018-11-01T13:09:11.269Z,58.62
2018-11-01T13:11:39.856Z,58.85
2018-11-01T13:14:08.220Z,58.48
2018-11-01T13:16:36.667Z,57.13
2018-11-01T13:19:05.490Z,57.12
2018-11-01T13:21:33.840Z,57.32
2018-11-01T13:24:02.165Z,57.96
2018-11-01T13:26:30.488Z,58.27
2018-11-01T13:28:58.943Z,59.52
2018-11-01T13:31:27.277Z,59.95
2018-11-01T13:33:55.628Z,59.25
2018-11-01T13:36:24.046Z,59.76
2018-11-01T13:38:52.368Z,59.18
2018-11-01T13:41:20.900Z,58.41
2018-11-01T13:43:49.153Z,59.04
2018-11-01T13:46:17.592Z,59.71
2018-11-01T13:48:45.910Z,59.52
2018-11-01T13:51:14.247Z,59.85
2018-11-01T13:53:42.589Z,59.92
2018-11-01T13:56:11.946Z,59.42
2018-11-01T13:58:40.289Z,59.85
2018-11-01T14:01:08.837Z,60.08
2018-11-01T14:03:37.176Z,59.93
2018-11-01T14:06:06.153Z,60.40
2018-11-01T14:08:34.579Z,60.09
2018-11-01T14:11:02.925Z,60.66
2018-11-01T14:13:31.403Z,60.90
2018-11-01T14:15:59.824Z,62.14
2018-11-01T14:18:28.161Z,63.79
2018-11-01T14:20:56.492Z,65.23
2018-11-01T14:23:24.960Z,66.44
2018-11-01T14:25:53.293Z,66.83
2018-11-01T14:28:21.627Z,67.35
2018-11-01T14:30:50.000Z,67.81
2018-11-01T14:33:18.348Z,68.74
2018-11-01T14:35:46.685Z,69.11
2018-11-01T14:38:15.041Z,69.03
2018-11-01T14:40:43.447Z,68.69
2018-11-01T14:43:11.852Z,68.11
2018-11-01T14:45:40.176Z,69.08
2018-11-01T14:48:08.568Z,69.15
2018-11-01T14:50:36.926Z,69.45
2018-11-01T14:53:06.509Z,70.26
2018-11-01T14:55:35.660Z,70.18
2018-11-01T14:58:04.033Z,70.94
2018-11-01T15:00:31.053Z,70.76
2018-11-01T15:03:00.402Z,70.16
2018-11-01T15:05:28.760Z,71.45
2018-11-01T15:07:57.180Z,71.86
2018-11-01T15:10:25.540Z,72.77
2018-11-01T15:12:53.975Z,72.82
2018-11-01T15:15:22.268Z,73.80
2018-11-01T15:17:50.621Z,74.69
2018-11-01T15:20:18.984Z,75.11
2018-11-01T15:22:47.332Z,75.30
2018-11-01T15:25:15.709Z,76.09
2018-11-01T15:27:44.076Z,76.09
2018-11-01T15:30:15.189Z,75.98
2018-11-01T15:32:43.796Z,75.95
2018-11-01T15:35:12.169Z,75.73
2018-11-01T15:37:40.624Z,76.32
2018-11-01T15:40:10.573Z,76.15
2018-11-01T15:42:39.140Z,76.46
2018-11-01T15:45:08.455Z,76.31
2018-11-01T15:47:37.132Z,76.18
2018-11-01T15:50:06.401Z,76.12
2018-11-01T15:52:34.744Z,76.24
2018-11-01T15:55:03.723Z,76.76
2018-11-01T15:57:32.056Z,76.88
2018-11-01T16:00:00.388Z,77.10
2018-11-01T16:02:28.830Z,77.50
2018-11-01T16:04:57.057Z,77.60
2018-11-01T16:07:25.576Z,77.58
2018-11-01T16:09:53.934Z,77.34
2018-11-01T16:12:22.239Z,77.23
2018-11-01T16:14:50.571Z,77.43
2018-11-01T16:17:18.879Z,77.33
2018-11-01T16:19:47.316Z,77.51
2018-11-01T16:22:15.524Z,78.55
2018-11-01T16:24:43.883Z,79.24
2018-11-01T16:27:12.334Z,78.68
2018-11-01T16:29:40.600Z,78.29
2018-11-01T16:32:08.952Z,78.13
2018-11-01T16:34:37.333Z,78.12
2018-11-01T16:37:05.741Z,77.91
2018-11-01T16:39:34.097Z,78.18
2018-11-01T16:42:02.607Z,78.05
2018-11-01T16:44:30.937Z,77.40
2018-11-01T16:46:59.298Z,77.43
2018-11-01T16:49:27.809Z,78.24
2018-11-01T16:51:56.177Z,78.19
2018-11-01T16:54:24.564Z,77.95
2018-11-01T16:56:52.948Z,77.82
2018-11-01T16:59:21.305Z,78.02
2018-11-01T17:01:49.670Z,78.50
2018-11-01T17:04:18.053Z,79.24
2018-11-01T17:06:46.404Z,78.24
2018-11-01T17:09:14.781Z,78.31
2018-11-01T17:11:43.116Z,78.27
2018-11-01T17:14:11.464Z,78.31
2018-11-01T17:16:39.836Z,77.66
2018-11-01T17:19:08.873Z,78.23
2018-11-01T17:21:37.477Z,77.80
2018-11-01T17:24:06.032Z,77.48
2018-11-01T17:26:34.377Z,78.01
2018-11-01T17:29:02.696Z,77.38
2018-11-01T17:31:31.059Z,77.70
2018-11-01T17:33:59.485Z,77.96
2018-11-01T17:36:27.791Z,77.81
2018-11-01T17:38:56.115Z,77.78
2018-11-01T17:41:24.461Z,78.08
2018-11-01T17:43:52.828Z,77.61
2018-11-01T17:46:21.242Z,77.94
2018-11-01T17:48:49.524Z,78.39
2018-11-01T17:51:17.915Z,78.33
2018-11-01T17:53:46.257Z,78.24
2018-11-01T17:56:14.649Z,78.54
2018-11-01T17:58:43.012Z,78.34
2018-11-01T18:01:11.480Z,78.59
2018-11-01T18:03:39.886Z,78.32
2018-11-01T18:06:08.242Z,78.40
2018-11-01T18:08:36.745Z,78.59
2018-11-01T18:11:05.353Z,78.76
2018-11-01T18:13:33.712Z,78.80
2018-11-01T18:16:02.108Z,78.38
2018-11-01T18:18:30.488Z,78.66
2018-11-01T18:20:58.811Z,78.78
2018-11-01T18:23:27.239Z,78.56
2018-11-01T18:25:55.540Z,78.87
2018-11-01T18:28:23.913Z,78.46
2018-11-01T18:30:52.291Z,78.51
2018-11-01T18:33:20.789Z,78.32
2018-11-01T18:35:49.192Z,78.44
2018-11-01T18:38:17.553Z,78.16
2018-11-01T18:40:45.933Z,77.63
2018-11-01T18:43:14.277Z,77.05
2018-11-01T18:45:44.381Z,77.33
2018-11-01T18:48:12.936Z,77.44
2018-11-01T18:50:41.236Z,77.15
2018-11-01T18:53:09.597Z,77.46
2018-11-01T18:55:37.985Z,77.88
2018-11-01T18:58:06.369Z,77.35
2018-11-01T19:00:34.771Z,77.40
2018-11-01T19:03:03.139Z,77.56
2018-11-01T19:05:31.575Z,77.58
2018-11-01T19:07:59.977Z,77.95
2018-11-01T19:10:28.324Z,78.07
2018-11-01T19:12:56.673Z,77.40
2018-11-01T19:15:25.057Z,78.06
2018-11-01T19:17:53.461Z,77.93
2018-11-01T19:20:21.808Z,77.98
2018-11-01T19:22:50.173Z,77.71
2018-11-01T19:25:18.529Z,77.97
2018-11-01T19:27:46.968Z,77.87
2018-11-01T19:30:15.276Z,77.65
2018-11-01T19:32:43.755Z,77.57
2018-11-01T19:35:13.154Z,77.44
2018-11-01T19:37:41.525Z,77.17
2018-11-01T19:40:12.680Z,77.32
2018-11-01T19:42:41.011Z,78.34
2018-11-01T19:45:09.695Z,77.81
2018-11-01T19:47:38.333Z,77.64
2018-11-01T19:50:08.001Z,77.06
2018-11-01T19:52:36.388Z,76.94
2018-11-01T19:55:04.819Z,76.98
2018-11-01T19:57:33.381Z,76.62
2018-11-01T20:00:02.192Z,76.81
2018-11-01T20:02:31.003Z,76.31
2018-11-01T20:04:59.469Z,76.80
2018-11-01T20:07:27.820Z,77.49
2018-11-01T20:09:56.169Z,77.25
2018-11-01T20:12:24.526Z,77.42
2018-11-01T20:14:53.227Z,77.53
2018-11-01T20:17:21.804Z,76.74
2018-11-01T20:19:50.260Z,77.18
2018-11-01T20:22:18.563Z,77.45
2018-11-01T20:24:46.909Z,76.71
2018-11-01T20:27:15.260Z,76.97
2018-11-01T20:29:43.905Z,77.06
2018-11-01T20:32:12.232Z,76.72
2018-11-01T20:34:40.572Z,76.86
2018-11-01T20:37:08.944Z,77.28
2018-11-01T20:39:37.289Z,76.95
2018-11-01T20:42:06.576Z,77.64
2018-11-01T20:44:34.920Z,78.45
2018-11-01T20:47:03.272Z,78.58
2018-11-01T20:49:31.680Z,78.32
2018-11-01T20:52:00.021Z,76.92
2018-11-01T20:54:28.445Z,77.43
2018-11-01T20:56:56.824Z,77.07
2018-11-01T20:59:25.180Z,77.59
2018-11-01T21:01:53.644Z,77.29
2018-11-01T21:04:22.264Z,77.10
2018-11-01T21:06:50.575Z,77.48
2018-11-01T21:09:18.920Z,77.38
2018-11-01T21:11:47.475Z,78.27
2018-11-01T21:14:15.573Z,77.87
2018-11-01T21:16:43.916Z,77.63
2018-11-01T21:19:12.224Z,76.75
2018-11-01T21:21:40.573Z,76.97
2018-11-01T21:24:08.913Z,77.70
2018-11-01T21:26:37.248Z,77.67
2018-11-01T21:29:05.758Z,78.12
2018-11-01T21:31:34.072Z,77.82
2018-11-01T21:34:02.445Z,77.55
2018-11-01T21:36:30.841Z,77.18
2018-11-01T21:38:59.200Z,78.08
2018-11-01T21:41:27.548Z,78.03
2018-11-01T21:43:55.913Z,78.25
2018-11-01T21:46:24.264Z,78.93
2018-11-01T21:48:52.622Z,78.87
2018-11-01T21:51:21.241Z,79.30
2018-11-01T21:53:49.612Z,78.41
2018-11-01T21:56:17.973Z,79.27
2018-11-01T21:58:46.355Z,78.75
2018-11-01T22:01:14.804Z,78.62
2018-11-01T22:03:43.292Z,78.67
2018-11-01T22:06:11.676Z,79.37
2018-11-01T22:08:40.062Z,79.48
2018-11-01T22:11:08.413Z,79.29
2018-11-01T22:13:36.785Z,79.76
2018-11-01T22:16:05.329Z,79.08
2018-11-01T22:18:33.669Z,78.92
2018-11-01T22:21:02.097Z,78.98
2018-11-01T22:23:30.449Z,78.05
2018-11-01T22:25:58.799Z,78.54
2018-11-01T22:28:27.283Z,79.19
2018-11-01T22:30:55.609Z,79.03
2018-11-01T22:33:23.995Z,78.59
2018-11-01T22:35:52.525Z,78.28
2018-11-01T22:38:20.889Z,78.93
2018-11-01T22:40:49.244Z,78.31
2018-11-01T22:43:17.764Z,78.01
2018-11-01T22:45:46.120Z,80.22
2018-11-01T22:48:14.472Z,80.06
2018-11-01T22:50:42.853Z,80.00
2018-11-01T22:53:11.197Z,81.04
2018-11-01T22:55:39.532Z,80.33
2018-11-01T22:58:08.013Z,81.76
2018-11-01T23:00:40.621Z,82.52
2018-11-01T23:03:08.996Z,82.49
2018-11-01T23:05:37.341Z,82.60
2018-11-01T23:08:06.160Z,83.79
2018-11-01T23:10:34.810Z,83.80
2018-11-01T23:13:03.572Z,84.74
2018-11-01T23:15:31.960Z,83.96
2018-11-01T23:18:00.333Z,84.51
2018-11-01T23:20:28.673Z,83.98
2018-11-01T23:22:57.016Z,84.57
2018-11-01T23:25:25.616Z,84.92
2018-11-01T23:27:53.960Z,84.99
2018-11-01T23:30:22.309Z,85.18
2018-11-01T23:32:50.733Z,85.88
2018-11-01T23:35:19.067Z,86.38
2018-11-01T23:37:52.729Z,87.04
2018-11-01T23:40:26.345Z,86.64
2018-11-01T23:43:00.240Z,86.37
2018-11-01T23:45:33.908Z,87.31
2018-11-01T23:48:01.437Z,87.05
2018-11-01T23:51:34.828Z,87.28
2018-11-01T23:54:03.324Z,87.39
2018-11-01T23:56:31.656Z,87.83
2018-11-01T23:59:00.057Z,87.49
